sensor_id;sensor_type;location;lat;lon;timestamp;temperature;humidity
53045;DHT22;38930;52.766;6.884;2023-07-13T00:00:33;16.60;99.90
53045;DHT22;38930;52.766;6.884;2023-07-13T00:02:59;16.60;99.90
53045;DHT22;38930;52.766;6.884;2023-07-13T00:05:25;16.50;99.90
53045;DHT22;38930;52.766;6.884;2023-07-13T00:07:51;16.50;99.90
53045;DHT22;38930;52.766;6.884;2023-07-13T00:10:17;16.50;99.90
53045;DHT22;38930;52.766;6.884;2023-07-13T00:12:43;16.50;99.90
53045;DHT22;38930;52.766;6.884;2023-07-13T00:15:17;16.40;99.90
53045;DHT22;38930;52.766;6.884;2023-07-13T00:17:49;16.40;99.90
53045;DHT22;38930;52.766;6.884;2023-07-13T00:20:14;16.40;99.90
53045;DHT22;38930;52.766;6.884;2023-07-13T00:22:40;16.40;99.90
53045;DHT22;38930;52.766;6.884;2023-07-13T00:25:06;16.40;99.90
53045;DHT22;38930;52.766;6.884;2023-07-13T00:27:32;16.40;99.90
53045;DHT22;38930;52.766;6.884;2023-07-13T00:29:58;16.30;99.90
53045;DHT22;38930;52.766;6.884;2023-07-13T00:32:25;16.30;99.90
53045;DHT22;38930;52.766;6.884;2023-07-13T00:34:51;16.30;99.90
53045;DHT22;38930;52.766;6.884;2023-07-13T00:37:20;16.30;99.90
53045;DHT22;38930;52.766;6.884;2023-07-13T00:39:46;16.30;99.90
53045;DHT22;38930;52.766;6.884;2023-07-13T00:42:11;16.20;99.90
53045;DHT22;38930;52.766;6.884;2023-07-13T00:44:37;16.20;99.90
53045;DHT22;38930;52.766;6.884;2023-07-13T00:47:05;16.20;99.90
53045;DHT22;38930;52.766;6.884;2023-07-13T00:49:33;16.20;99.90
53045;DHT22;38930;52.766;6.884;2023-07-13T00:52:05;16.20;99.90
53045;DHT22;38930;52.766;6.884;2023-07-13T00:54:38;16.20;99.90
53045;DHT22;38930;52.766;6.884;2023-07-13T00:57:09;16.20;99.90
53045;DHT22;38930;52.766;6.884;2023-07-13T00:59:41;16.10;99.90
53045;DHT22;38930;52.766;6.884;2023-07-13T01:02:07;16.10;99.90
53045;DHT22;38930;52.766;6.884;2023-07-13T01:04:33;16.10;99.90
53045;DHT22;38930;52.766;6.884;2023-07-13T01:07:01;16.10;99.90
53045;DHT22;38930;52.766;6.884;2023-07-13T01:09:27;16.10;99.90
53045;DHT22;38930;52.766;6.884;2023-07-13T01:11:53;16.10;99.90
53045;DHT22;38930;52.766;6.884;2023-07-13T01:14:19;16.10;99.90
53045;DHT22;38930;52.766;6.884;2023-07-13T01:16:46;16.10;99.90
53045;DHT22;38930;52.766;6.884;2023-07-13T01:19:44;16.20;99.90
53045;DHT22;38930;52.766;6.884;2023-07-13T01:22:12;16.20;99.90
53045;DHT22;38930;52.766;6.884;2023-07-13T01:24:40;16.20;99.90
53045;DHT22;38930;52.766;6.884;2023-07-13T01:27:09;16.20;99.90
53045;DHT22;38930;52.766;6.884;2023-07-13T01:29:37;16.20;99.90
53045;DHT22;38930;52.766;6.884;2023-07-13T01:32:09;16.20;99.90
53045;DHT22;38930;52.766;6.884;2023-07-13T01:34:36;16.30;99.90
53045;DHT22;38930;52.766;6.884;2023-07-13T01:37:03;16.30;99.90
53045;DHT22;38930;52.766;6.884;2023-07-13T01:39:30;16.30;99.90
53045;DHT22;38930;52.766;6.884;2023-07-13T01:41:55;16.30;99.90
53045;DHT22;38930;52.766;6.884;2023-07-13T01:44:21;16.30;99.90
53045;DHT22;38930;52.766;6.884;2023-07-13T01:46:47;16.30;99.90
53045;DHT22;38930;52.766;6.884;2023-07-13T01:49:12;16.30;99.90
53045;DHT22;38930;52.766;6.884;2023-07-13T01:51:38;16.30;99.90
53045;DHT22;38930;52.766;6.884;2023-07-13T01:54:04;16.30;99.90
53045;DHT22;38930;52.766;6.884;2023-07-13T01:56:30;16.30;99.90
53045;DHT22;38930;52.766;6.884;2023-07-13T01:58:55;16.30;99.90
53045;DHT22;38930;52.766;6.884;2023-07-13T02:01:22;16.30;99.90
53045;DHT22;38930;52.766;6.884;2023-07-13T02:03:48;16.30;99.90
53045;DHT22;38930;52.766;6.884;2023-07-13T02:06:13;16.30;99.90
53045;DHT22;38930;52.766;6.884;2023-07-13T02:08:40;16.40;99.90
53045;DHT22;38930;52.766;6.884;2023-07-13T02:11:09;16.40;99.90
53045;DHT22;38930;52.766;6.884;2023-07-13T02:13:35;16.40;99.90
53045;DHT22;38930;52.766;6.884;2023-07-13T02:16:01;16.40;99.90
53045;DHT22;38930;52.766;6.884;2023-07-13T02:18:27;16.40;99.90
53045;DHT22;38930;52.766;6.884;2023-07-13T02:20:52;16.40;99.90
53045;DHT22;38930;52.766;6.884;2023-07-13T02:23:18;16.40;99.90
53045;DHT22;38930;52.766;6.884;2023-07-13T02:25:45;16.40;99.90
53045;DHT22;38930;52.766;6.884;2023-07-13T02:28:11;16.40;99.90
53045;DHT22;38930;52.766;6.884;2023-07-13T02:30:37;16.40;99.90
53045;DHT22;38930;52.766;6.884;2023-07-13T02:33:04;16.40;99.90
53045;DHT22;38930;52.766;6.884;2023-07-13T02:35:30;16.40;99.90
53045;DHT22;38930;52.766;6.884;2023-07-13T02:37:56;16.30;99.90
53045;DHT22;38930;52.766;6.884;2023-07-13T02:40:22;16.30;99.90
53045;DHT22;38930;52.766;6.884;2023-07-13T02:42:48;16.30;99.90
53045;DHT22;38930;52.766;6.884;2023-07-13T02:45:13;16.20;99.90
53045;DHT22;38930;52.766;6.884;2023-07-13T02:47:40;16.20;99.90
53045;DHT22;38930;52.766;6.884;2023-07-13T02:50:06;16.20;99.90
53045;DHT22;38930;52.766;6.884;2023-07-13T02:52:32;16.20;99.90
53045;DHT22;38930;52.766;6.884;2023-07-13T02:54:58;16.20;99.90
53045;DHT22;38930;52.766;6.884;2023-07-13T02:57:23;16.20;99.90
53045;DHT22;38930;52.766;6.884;2023-07-13T02:59:49;16.20;99.90
53045;DHT22;38930;52.766;6.884;2023-07-13T03:02:15;16.20;99.90
53045;DHT22;38930;52.766;6.884;2023-07-13T03:04:41;16.20;99.90
53045;DHT22;38930;52.766;6.884;2023-07-13T03:07:07;16.20;99.90
53045;DHT22;38930;52.766;6.884;2023-07-13T03:09:34;16.20;99.90
53045;DHT22;38930;52.766;6.884;2023-07-13T03:12:00;16.20;99.90
53045;DHT22;38930;52.766;6.884;2023-07-13T03:14:26;16.20;99.90
53045;DHT22;38930;52.766;6.884;2023-07-13T03:16:52;16.10;99.90
53045;DHT22;38930;52.766;6.884;2023-07-13T03:19:18;16.10;99.90
53045;DHT22;38930;52.766;6.884;2023-07-13T03:21:47;16.10;99.90
53045;DHT22;38930;52.766;6.884;2023-07-13T03:24:13;16.10;99.90
53045;DHT22;38930;52.766;6.884;2023-07-13T03:26:39;16.10;99.90
53045;DHT22;38930;52.766;6.884;2023-07-13T03:29:05;16.10;99.90
53045;DHT22;38930;52.766;6.884;2023-07-13T03:31:33;16.10;99.90
53045;DHT22;38930;52.766;6.884;2023-07-13T03:33:59;16.10;99.90
53045;DHT22;38930;52.766;6.884;2023-07-13T03:36:27;16.10;99.90
53045;DHT22;38930;52.766;6.884;2023-07-13T03:38:58;16.10;99.90
53045;DHT22;38930;52.766;6.884;2023-07-13T03:41:25;16.10;99.90
53045;DHT22;38930;52.766;6.884;2023-07-13T03:43:51;16.10;99.90
53045;DHT22;38930;52.766;6.884;2023-07-13T03:46:17;16.10;99.90
53045;DHT22;38930;52.766;6.884;2023-07-13T03:48:47;16.10;99.90
53045;DHT22;38930;52.766;6.884;2023-07-13T03:51:14;16.10;99.90
53045;DHT22;38930;52.766;6.884;2023-07-13T03:53:42;16.10;99.90
53045;DHT22;38930;52.766;6.884;2023-07-13T03:56:09;16.10;99.90
53045;DHT22;38930;52.766;6.884;2023-07-13T03:58:38;16.10;99.90
53045;DHT22;38930;52.766;6.884;2023-07-13T04:01:07;16.10;99.90
53045;DHT22;38930;52.766;6.884;2023-07-13T04:03:34;16.10;99.90
53045;DHT22;38930;52.766;6.884;2023-07-13T04:06:00;16.00;99.90
53045;DHT22;38930;52.766;6.884;2023-07-13T04:08:31;16.00;99.90
53045;DHT22;38930;52.766;6.884;2023-07-13T04:10:58;16.00;99.90
53045;DHT22;38930;52.766;6.884;2023-07-13T04:13:24;16.00;99.90
53045;DHT22;38930;52.766;6.884;2023-07-13T04:15:51;16.00;99.90
53045;DHT22;38930;52.766;6.884;2023-07-13T04:18:16;16.00;99.90
53045;DHT22;38930;52.766;6.884;2023-07-13T04:20:42;16.00;99.90
53045;DHT22;38930;52.766;6.884;2023-07-13T04:23:08;16.00;99.90
53045;DHT22;38930;52.766;6.884;2023-07-13T04:25:34;16.00;99.90
53045;DHT22;38930;52.766;6.884;2023-07-13T04:28:00;16.00;99.90
53045;DHT22;38930;52.766;6.884;2023-07-13T04:30:26;16.10;99.90
53045;DHT22;38930;52.766;6.884;2023-07-13T04:32:52;16.10;99.90
53045;DHT22;38930;52.766;6.884;2023-07-13T04:35:19;16.10;99.90
53045;DHT22;38930;52.766;6.884;2023-07-13T04:37:49;16.10;99.90
53045;DHT22;38930;52.766;6.884;2023-07-13T04:40:19;16.10;99.90
53045;DHT22;38930;52.766;6.884;2023-07-13T04:42:46;16.10;99.90
53045;DHT22;38930;52.766;6.884;2023-07-13T04:45:13;16.10;99.90
53045;DHT22;38930;52.766;6.884;2023-07-13T04:47:42;16.10;99.90
53045;DHT22;38930;52.766;6.884;2023-07-13T04:50:08;16.10;99.90
53045;DHT22;38930;52.766;6.884;2023-07-13T04:52:36;16.10;99.90
53045;DHT22;38930;52.766;6.884;2023-07-13T04:55:02;16.10;99.90
53045;DHT22;38930;52.766;6.884;2023-07-13T04:57:28;16.10;99.90
53045;DHT22;38930;52.766;6.884;2023-07-13T04:59:54;16.10;99.90
53045;DHT22;38930;52.766;6.884;2023-07-13T05:02:21;16.10;99.90
53045;DHT22;38930;52.766;6.884;2023-07-13T05:04:50;16.10;99.90
53045;DHT22;38930;52.766;6.884;2023-07-13T05:07:15;16.10;99.90
53045;DHT22;38930;52.766;6.884;2023-07-13T05:09:41;16.10;99.90
53045;DHT22;38930;52.766;6.884;2023-07-13T05:12:08;16.10;99.90
53045;DHT22;38930;52.766;6.884;2023-07-13T05:14:35;16.10;99.90
53045;DHT22;38930;52.766;6.884;2023-07-13T05:17:00;16.10;99.90
53045;DHT22;38930;52.766;6.884;2023-07-13T05:19:26;16.10;99.90
53045;DHT22;38930;52.766;6.884;2023-07-13T05:21:52;16.20;99.90
53045;DHT22;38930;52.766;6.884;2023-07-13T05:24:18;16.20;99.90
53045;DHT22;38930;52.766;6.884;2023-07-13T05:26:44;16.30;99.90
53045;DHT22;38930;52.766;6.884;2023-07-13T05:29:09;16.30;99.90
53045;DHT22;38930;52.766;6.884;2023-07-13T05:31:35;16.50;99.90
53045;DHT22;38930;52.766;6.884;2023-07-13T05:34:01;16.70;99.90
53045;DHT22;38930;52.766;6.884;2023-07-13T05:36:26;16.90;99.90
53045;DHT22;38930;52.766;6.884;2023-07-13T05:38:52;17.10;99.90
53045;DHT22;38930;52.766;6.884;2023-07-13T05:41:18;17.30;99.90
53045;DHT22;38930;52.766;6.884;2023-07-13T05:43:44;17.30;99.90
53045;DHT22;38930;52.766;6.884;2023-07-13T05:46:09;17.50;99.90
53045;DHT22;38930;52.766;6.884;2023-07-13T05:48:35;17.70;99.90
53045;DHT22;38930;52.766;6.884;2023-07-13T05:51:01;17.90;99.90
53045;DHT22;38930;52.766;6.884;2023-07-13T05:53:27;18.10;99.90
53045;DHT22;38930;52.766;6.884;2023-07-13T05:55:54;18.10;99.90
53045;DHT22;38930;52.766;6.884;2023-07-13T05:58:21;18.30;99.90
53045;DHT22;38930;52.766;6.884;2023-07-13T06:00:47;18.40;99.90
53045;DHT22;38930;52.766;6.884;2023-07-13T06:03:14;18.50;99.90
53045;DHT22;38930;52.766;6.884;2023-07-13T06:05:40;18.70;99.90
53045;DHT22;38930;52.766;6.884;2023-07-13T06:08:07;18.80;99.90
53045;DHT22;38930;52.766;6.884;2023-07-13T06:10:33;18.90;99.90
53045;DHT22;38930;52.766;6.884;2023-07-13T06:12:58;19.00;99.90
53045;DHT22;38930;52.766;6.884;2023-07-13T06:15:24;19.10;99.90
53045;DHT22;38930;52.766;6.884;2023-07-13T06:17:50;19.20;99.90
53045;DHT22;38930;52.766;6.884;2023-07-13T06:20:16;19.30;99.90
53045;DHT22;38930;52.766;6.884;2023-07-13T06:22:41;19.40;99.90
53045;DHT22;38930;52.766;6.884;2023-07-13T06:25:07;19.50;99.90
53045;DHT22;38930;52.766;6.884;2023-07-13T06:27:33;19.50;99.90
53045;DHT22;38930;52.766;6.884;2023-07-13T06:29:59;19.60;99.90
53045;DHT22;38930;52.766;6.884;2023-07-13T06:32:24;19.60;99.90
53045;DHT22;38930;52.766;6.884;2023-07-13T06:34:51;19.60;99.90
53045;DHT22;38930;52.766;6.884;2023-07-13T06:37:17;19.50;99.90
53045;DHT22;38930;52.766;6.884;2023-07-13T06:39:43;19.50;99.90
53045;DHT22;38930;52.766;6.884;2023-07-13T06:42:09;19.60;99.90
53045;DHT22;38930;52.766;6.884;2023-07-13T06:44:35;19.70;99.90
53045;DHT22;38930;52.766;6.884;2023-07-13T06:47:01;19.70;99.90
53045;DHT22;38930;52.766;6.884;2023-07-13T06:49:26;19.80;99.90
53045;DHT22;38930;52.766;6.884;2023-07-13T06:51:52;19.80;99.90
53045;DHT22;38930;52.766;6.884;2023-07-13T06:54:18;19.80;99.90
53045;DHT22;38930;52.766;6.884;2023-07-13T06:56:43;19.80;99.90
53045;DHT22;38930;52.766;6.884;2023-07-13T06:59:09;19.90;99.90
53045;DHT22;38930;52.766;6.884;2023-07-13T07:01:35;20.00;99.90
53045;DHT22;38930;52.766;6.884;2023-07-13T07:04:00;20.00;99.90
53045;DHT22;38930;52.766;6.884;2023-07-13T07:06:26;20.20;99.90
53045;DHT22;38930;52.766;6.884;2023-07-13T07:08:52;20.40;99.90
53045;DHT22;38930;52.766;6.884;2023-07-13T07:11:23;20.60;99.90
53045;DHT22;38930;52.766;6.884;2023-07-13T07:13:50;20.70;99.90
53045;DHT22;38930;52.766;6.884;2023-07-13T07:16:16;20.80;99.90
53045;DHT22;38930;52.766;6.884;2023-07-13T07:18:42;20.90;99.90
53045;DHT22;38930;52.766;6.884;2023-07-13T07:21:08;20.80;99.90
53045;DHT22;38930;52.766;6.884;2023-07-13T07:23:35;20.70;99.90
53045;DHT22;38930;52.766;6.884;2023-07-13T07:26:01;20.50;99.90
53045;DHT22;38930;52.766;6.884;2023-07-13T07:28:27;20.40;99.90
53045;DHT22;38930;52.766;6.884;2023-07-13T07:30:55;20.30;99.90
53045;DHT22;38930;52.766;6.884;2023-07-13T07:33:21;20.30;99.90
53045;DHT22;38930;52.766;6.884;2023-07-13T07:35:47;20.20;99.90
53045;DHT22;38930;52.766;6.884;2023-07-13T07:38:13;20.20;99.90
53045;DHT22;38930;52.766;6.884;2023-07-13T07:40:40;20.20;99.90
53045;DHT22;38930;52.766;6.884;2023-07-13T07:43:10;20.20;99.90
53045;DHT22;38930;52.766;6.884;2023-07-13T07:45:37;20.10;99.90
53045;DHT22;38930;52.766;6.884;2023-07-13T07:48:04;20.20;99.90
53045;DHT22;38930;52.766;6.884;2023-07-13T07:50:30;20.10;99.90
53045;DHT22;38930;52.766;6.884;2023-07-13T07:52:56;20.00;99.90
53045;DHT22;38930;52.766;6.884;2023-07-13T07:55:23;20.00;99.90
53045;DHT22;38930;52.766;6.884;2023-07-13T07:57:52;19.90;99.90
53045;DHT22;38930;52.766;6.884;2023-07-13T08:00:18;19.90;99.90
53045;DHT22;38930;52.766;6.884;2023-07-13T08:02:45;19.90;99.90
53045;DHT22;38930;52.766;6.884;2023-07-13T08:05:11;19.90;99.90
53045;DHT22;38930;52.766;6.884;2023-07-13T08:07:38;20.00;99.90
53045;DHT22;38930;52.766;6.884;2023-07-13T08:10:04;19.90;99.90
53045;DHT22;38930;52.766;6.884;2023-07-13T08:12:33;20.00;99.90
53045;DHT22;38930;52.766;6.884;2023-07-13T08:14:59;20.00;99.90
53045;DHT22;38930;52.766;6.884;2023-07-13T08:17:26;20.10;99.90
53045;DHT22;38930;52.766;6.884;2023-07-13T08:19:52;20.20;99.90
53045;DHT22;38930;52.766;6.884;2023-07-13T08:22:18;20.30;99.90
53045;DHT22;38930;52.766;6.884;2023-07-13T08:24:43;20.30;99.90
53045;DHT22;38930;52.766;6.884;2023-07-13T08:27:10;20.40;99.90
53045;DHT22;38930;52.766;6.884;2023-07-13T08:29:37;20.50;99.90
53045;DHT22;38930;52.766;6.884;2023-07-13T08:32:04;20.50;99.90
53045;DHT22;38930;52.766;6.884;2023-07-13T08:34:30;20.60;99.90
53045;DHT22;38930;52.766;6.884;2023-07-13T08:36:56;20.70;99.90
53045;DHT22;38930;52.766;6.884;2023-07-13T08:39:21;20.80;99.90
53045;DHT22;38930;52.766;6.884;2023-07-13T08:41:49;21.00;99.90
53045;DHT22;38930;52.766;6.884;2023-07-13T08:44:37;21.20;99.90
53045;DHT22;38930;52.766;6.884;2023-07-13T08:47:06;21.40;99.90
53045;DHT22;38930;52.766;6.884;2023-07-13T08:49:33;21.60;99.90
53045;DHT22;38930;52.766;6.884;2023-07-13T08:52:26;21.80;99.90
53045;DHT22;38930;52.766;6.884;2023-07-13T08:54:55;21.90;99.90
53045;DHT22;38930;52.766;6.884;2023-07-13T08:57:27;22.10;99.90
53045;DHT22;38930;52.766;6.884;2023-07-13T08:59:56;22.10;99.90
53045;DHT22;38930;52.766;6.884;2023-07-13T09:02:42;22.10;99.90
53045;DHT22;38930;52.766;6.884;2023-07-13T09:05:14;22.20;99.90
53045;DHT22;38930;52.766;6.884;2023-07-13T09:10:44;22.30;99.90
53045;DHT22;38930;52.766;6.884;2023-07-13T09:13:48;22.20;99.90
53045;DHT22;38930;52.766;6.884;2023-07-13T09:16:09;22.10;99.90
53045;DHT22;38930;52.766;6.884;2023-07-13T09:18:43;21.80;99.90
53045;DHT22;38930;52.766;6.884;2023-07-13T09:21:17;21.60;99.90
53045;DHT22;38930;52.766;6.884;2023-07-13T09:23:43;21.40;99.90
53045;DHT22;38930;52.766;6.884;2023-07-13T09:26:20;21.10;99.90
53045;DHT22;38930;52.766;6.884;2023-07-13T09:29:03;20.60;99.90
53045;DHT22;38930;52.766;6.884;2023-07-13T09:31:42;20.10;99.90
53045;DHT22;38930;52.766;6.884;2023-07-13T09:34:11;19.60;99.90
53045;DHT22;38930;52.766;6.884;2023-07-13T09:36:37;19.10;99.90
53045;DHT22;38930;52.766;6.884;2023-07-13T09:42:01;18.50;99.90
53045;DHT22;38930;52.766;6.884;2023-07-13T09:44:33;18.20;99.90
53045;DHT22;38930;52.766;6.884;2023-07-13T09:46:59;17.80;99.90
53045;DHT22;38930;52.766;6.884;2023-07-13T09:49:33;17.40;99.90
53045;DHT22;38930;52.766;6.884;2023-07-13T09:52:03;17.20;99.90
53045;DHT22;38930;52.766;6.884;2023-07-13T09:54:29;17.00;99.90
53045;DHT22;38930;52.766;6.884;2023-07-13T09:56:58;16.90;99.90
53045;DHT22;38930;52.766;6.884;2023-07-13T09:59:50;17.00;99.90
53045;DHT22;38930;52.766;6.884;2023-07-13T10:02:30;17.00;99.90
53045;DHT22;38930;52.766;6.884;2023-07-13T10:05:14;17.00;99.90
53045;DHT22;38930;52.766;6.884;2023-07-13T10:07:44;17.10;99.90
53045;DHT22;38930;52.766;6.884;2023-07-13T10:10:18;17.20;99.90
53045;DHT22;38930;52.766;6.884;2023-07-13T10:12:45;17.30;99.90
53045;DHT22;38930;52.766;6.884;2023-07-13T10:15:22;17.50;99.90
53045;DHT22;38930;52.766;6.884;2023-07-13T10:17:50;17.60;99.90
53045;DHT22;38930;52.766;6.884;2023-07-13T10:20:16;17.70;99.90
53045;DHT22;38930;52.766;6.884;2023-07-13T10:23:01;17.80;99.90
53045;DHT22;38930;52.766;6.884;2023-07-13T10:25:32;18.00;99.90
53045;DHT22;38930;52.766;6.884;2023-07-13T10:30:39;18.20;99.90
53045;DHT22;38930;52.766;6.884;2023-07-13T10:33:10;18.40;99.90
53045;DHT22;38930;52.766;6.884;2023-07-13T10:35:39;18.50;99.90
53045;DHT22;38930;52.766;6.884;2023-07-13T10:38:11;18.70;99.90
53045;DHT22;38930;52.766;6.884;2023-07-13T10:40:44;18.90;99.90
53045;DHT22;38930;52.766;6.884;2023-07-13T10:43:20;19.00;99.90
53045;DHT22;38930;52.766;6.884;2023-07-13T10:45:47;19.00;99.90
53045;DHT22;38930;52.766;6.884;2023-07-13T10:48:16;19.10;99.90
53045;DHT22;38930;52.766;6.884;2023-07-13T10:50:45;19.30;99.90
53045;DHT22;38930;52.766;6.884;2023-07-13T10:53:28;19.40;99.90
53045;DHT22;38930;52.766;6.884;2023-07-13T10:58:43;19.80;99.90
53045;DHT22;38930;52.766;6.884;2023-07-13T11:01:17;20.00;99.90
53045;DHT22;38930;52.766;6.884;2023-07-13T11:06:34;20.20;99.90
53045;DHT22;38930;52.766;6.884;2023-07-13T11:09:49;20.20;99.90
53045;DHT22;38930;52.766;6.884;2023-07-13T11:11:49;20.30;99.90
53045;DHT22;38930;52.766;6.884;2023-07-13T11:14:38;20.30;99.90
53045;DHT22;38930;52.766;6.884;2023-07-13T11:20:10;20.40;99.90
53045;DHT22;38930;52.766;6.884;2023-07-13T11:22:53;20.50;99.90
53045;DHT22;38930;52.766;6.884;2023-07-13T11:25:33;20.50;99.90
53045;DHT22;38930;52.766;6.884;2023-07-13T11:30:59;20.40;99.90
53045;DHT22;38930;52.766;6.884;2023-07-13T11:40:58;18.80;99.90
53045;DHT22;38930;52.766;6.884;2023-07-13T11:43:28;18.70;99.90
53045;DHT22;38930;52.766;6.884;2023-07-13T11:45:54;18.60;99.90
53045;DHT22;38930;52.766;6.884;2023-07-13T11:48:27;18.60;99.90
53045;DHT22;38930;52.766;6.884;2023-07-13T11:50:57;18.70;99.90
53045;DHT22;38930;52.766;6.884;2023-07-13T11:53:27;18.90;99.90
53045;DHT22;38930;52.766;6.884;2023-07-13T11:55:53;19.20;99.90
53045;DHT22;38930;52.766;6.884;2023-07-13T11:58:23;19.60;99.90
53045;DHT22;38930;52.766;6.884;2023-07-13T12:00:50;20.00;99.90
53045;DHT22;38930;52.766;6.884;2023-07-13T12:03:22;20.20;99.90
53045;DHT22;38930;52.766;6.884;2023-07-13T12:06:27;20.30;99.90
53045;DHT22;38930;52.766;6.884;2023-07-13T12:09:00;20.50;99.90
53045;DHT22;38930;52.766;6.884;2023-07-13T12:11:26;20.80;99.90
53045;DHT22;38930;52.766;6.884;2023-07-13T12:13:52;21.00;99.90
53045;DHT22;38930;52.766;6.884;2023-07-13T12:16:28;21.30;99.90
53045;DHT22;38930;52.766;6.884;2023-07-13T12:18:56;21.50;99.90
53045;DHT22;38930;52.766;6.884;2023-07-13T12:21:33;21.70;99.90
53045;DHT22;38930;52.766;6.884;2023-07-13T12:24:00;21.90;99.90
53045;DHT22;38930;52.766;6.884;2023-07-13T12:26:30;22.00;99.90
53045;DHT22;38930;52.766;6.884;2023-07-13T12:28:59;22.20;99.90
53045;DHT22;38930;52.766;6.884;2023-07-13T12:34:20;22.40;99.90
53045;DHT22;38930;52.766;6.884;2023-07-13T12:36:59;22.50;99.90
53045;DHT22;38930;52.766;6.884;2023-07-13T12:39:45;22.60;99.90
53045;DHT22;38930;52.766;6.884;2023-07-13T12:42:24;22.50;99.90
53045;DHT22;38930;52.766;6.884;2023-07-13T12:45:17;22.50;99.90
53045;DHT22;38930;52.766;6.884;2023-07-13T12:47:48;22.20;99.90
53045;DHT22;38930;52.766;6.884;2023-07-13T12:50:20;21.90;99.90
53045;DHT22;38930;52.766;6.884;2023-07-13T12:52:54;21.60;99.90
53045;DHT22;38930;52.766;6.884;2023-07-13T12:55:22;21.40;99.90
53045;DHT22;38930;52.766;6.884;2023-07-13T12:57:56;21.30;99.90
53045;DHT22;38930;52.766;6.884;2023-07-13T13:00:33;21.10;99.90
53045;DHT22;38930;52.766;6.884;2023-07-13T13:03:05;21.00;99.90
53045;DHT22;38930;52.766;6.884;2023-07-13T13:05:32;20.90;99.90
53045;DHT22;38930;52.766;6.884;2023-07-13T13:07:59;20.60;99.90
53045;DHT22;38930;52.766;6.884;2023-07-13T13:10:25;20.50;99.90
53045;DHT22;38930;52.766;6.884;2023-07-13T13:12:52;20.50;99.90
53045;DHT22;38930;52.766;6.884;2023-07-13T13:15:18;20.50;99.90
53045;DHT22;38930;52.766;6.884;2023-07-13T13:17:44;20.50;99.90
53045;DHT22;38930;52.766;6.884;2023-07-13T13:20:18;20.60;99.90
53045;DHT22;38930;52.766;6.884;2023-07-13T13:22:44;20.80;99.90
53045;DHT22;38930;52.766;6.884;2023-07-13T13:25:11;21.00;99.90
53045;DHT22;38930;52.766;6.884;2023-07-13T13:27:37;21.10;99.90
53045;DHT22;38930;52.766;6.884;2023-07-13T13:30:13;21.30;99.90
53045;DHT22;38930;52.766;6.884;2023-07-13T13:32:40;21.20;99.90
53045;DHT22;38930;52.766;6.884;2023-07-13T13:35:13;21.00;99.90
53045;DHT22;38930;52.766;6.884;2023-07-13T13:37:39;21.10;99.90
53045;DHT22;38930;52.766;6.884;2023-07-13T13:40:20;21.20;99.90
53045;DHT22;38930;52.766;6.884;2023-07-13T13:42:47;21.30;99.90
53045;DHT22;38930;52.766;6.884;2023-07-13T13:45:13;21.50;99.90
53045;DHT22;38930;52.766;6.884;2023-07-13T13:47:39;21.50;99.90
53045;DHT22;38930;52.766;6.884;2023-07-13T13:50:15;21.70;99.90
53045;DHT22;38930;52.766;6.884;2023-07-13T13:52:42;21.70;99.90
53045;DHT22;38930;52.766;6.884;2023-07-13T13:55:11;21.60;99.90
53045;DHT22;38930;52.766;6.884;2023-07-13T13:57:37;21.50;99.90
53045;DHT22;38930;52.766;6.884;2023-07-13T14:00:03;21.30;99.90
53045;DHT22;38930;52.766;6.884;2023-07-13T14:02:29;21.30;99.90
53045;DHT22;38930;52.766;6.884;2023-07-13T14:04:59;21.50;99.90
53045;DHT22;38930;52.766;6.884;2023-07-13T14:07:25;21.70;99.90
53045;DHT22;38930;52.766;6.884;2023-07-13T14:09:57;21.80;99.90
53045;DHT22;38930;52.766;6.884;2023-07-13T14:12:22;22.00;99.90
53045;DHT22;38930;52.766;6.884;2023-07-13T14:14:51;22.10;99.90
53045;DHT22;38930;52.766;6.884;2023-07-13T14:17:22;22.20;99.90
53045;DHT22;38930;52.766;6.884;2023-07-13T14:19:52;22.30;99.90
53045;DHT22;38930;52.766;6.884;2023-07-13T14:22:23;22.40;99.90
53045;DHT22;38930;52.766;6.884;2023-07-13T14:24:52;22.60;99.90
53045;DHT22;38930;52.766;6.884;2023-07-13T14:27:18;22.60;99.90
53045;DHT22;38930;52.766;6.884;2023-07-13T14:29:44;22.70;99.90
53045;DHT22;38930;52.766;6.884;2023-07-13T14:32:13;22.70;99.90
53045;DHT22;38930;52.766;6.884;2023-07-13T14:34:39;22.60;99.90
53045;DHT22;38930;52.766;6.884;2023-07-13T14:37:05;22.60;99.90
53045;DHT22;38930;52.766;6.884;2023-07-13T14:39:31;22.60;99.90
53045;DHT22;38930;52.766;6.884;2023-07-13T14:41:57;22.70;99.90
53045;DHT22;38930;52.766;6.884;2023-07-13T14:44:28;22.80;99.90
53045;DHT22;38930;52.766;6.884;2023-07-13T14:46:55;22.80;99.90
53045;DHT22;38930;52.766;6.884;2023-07-13T14:49:27;22.70;99.90
53045;DHT22;38930;52.766;6.884;2023-07-13T14:51:55;22.70;99.90
53045;DHT22;38930;52.766;6.884;2023-07-13T14:54:23;22.50;99.90
53045;DHT22;38930;52.766;6.884;2023-07-13T14:56:49;22.40;99.90
53045;DHT22;38930;52.766;6.884;2023-07-13T14:59:16;22.40;99.90
53045;DHT22;38930;52.766;6.884;2023-07-13T15:01:44;22.50;99.90
53045;DHT22;38930;52.766;6.884;2023-07-13T15:04:10;22.70;99.90
53045;DHT22;38930;52.766;6.884;2023-07-13T15:07:01;22.80;99.90
53045;DHT22;38930;52.766;6.884;2023-07-13T15:09:28;22.80;99.90
53045;DHT22;38930;52.766;6.884;2023-07-13T15:11:57;22.70;99.90
53045;DHT22;38930;52.766;6.884;2023-07-13T15:14:23;22.60;99.90
53045;DHT22;38930;52.766;6.884;2023-07-13T15:16:54;22.70;99.90
53045;DHT22;38930;52.766;6.884;2023-07-13T15:19:21;22.80;99.90
53045;DHT22;38930;52.766;6.884;2023-07-13T15:21:49;22.80;99.90
53045;DHT22;38930;52.766;6.884;2023-07-13T15:24:15;23.00;99.90
53045;DHT22;38930;52.766;6.884;2023-07-13T15:26:42;23.00;99.90
53045;DHT22;38930;52.766;6.884;2023-07-13T15:29:14;23.00;99.90
53045;DHT22;38930;52.766;6.884;2023-07-13T15:31:40;23.00;99.90
53045;DHT22;38930;52.766;6.884;2023-07-13T15:34:15;23.00;99.90
53045;DHT22;38930;52.766;6.884;2023-07-13T15:36:41;23.00;99.90
53045;DHT22;38930;52.766;6.884;2023-07-13T15:39:14;22.90;99.90
53045;DHT22;38930;52.766;6.884;2023-07-13T15:41:41;22.90;99.90
53045;DHT22;38930;52.766;6.884;2023-07-13T15:44:31;23.00;99.90
53045;DHT22;38930;52.766;6.884;2023-07-13T15:46:57;23.00;99.90
53045;DHT22;38930;52.766;6.884;2023-07-13T15:49:25;23.10;99.90
53045;DHT22;38930;52.766;6.884;2023-07-13T15:51:51;23.10;99.90
53045;DHT22;38930;52.766;6.884;2023-07-13T15:54:18;23.20;99.90
53045;DHT22;38930;52.766;6.884;2023-07-13T15:56:50;23.30;99.90
53045;DHT22;38930;52.766;6.884;2023-07-13T15:59:19;23.40;99.90
53045;DHT22;38930;52.766;6.884;2023-07-13T16:01:45;23.40;99.90
53045;DHT22;38930;52.766;6.884;2023-07-13T16:04:12;23.50;99.90
53045;DHT22;38930;52.766;6.884;2023-07-13T16:06:40;23.40;99.90
53045;DHT22;38930;52.766;6.884;2023-07-13T16:09:07;23.40;99.90